Time;durP1;ratioP1;P1;durP2;ratioP2;P2;SDS_P1;SDS_P2;PMS_P1;PMS_P2;Temp;Humidity;BMP_temperature;BMP_pressure;BME280_temperature;BME280_humidity;BME280_pressure;Samples;Min_cycle;Max_cycle;Signal;HPM_P1;HPM_P2
2022/07/03 00:00:22;;;;;;;14.38;7.60;;;;;;;18.55;67.06;99916.75;5012518;28;20122;-83
2022/07/03 00:02:49;;;;;;;10.95;6.55;;;;;;;18.58;67.31;99907.84;5012365;28;20060;-83
2022/07/03 00:05:16;;;;;;;13.23;6.28;;;;;;;18.66;66.33;99903.22;5012096;28;20092;-84
2022/07/03 00:07:44;;;;;;;10.35;5.95;;;;;;;18.37;66.07;99857.34;5012539;28;20189;-83
2022/07/03 00:10:10;;;;;;;11.88;6.80;;;;;;;18.62;66.06;99901.56;5011947;28;20498;-84
2022/07/03 00:12:38;;;;;;;9.57;5.90;;;;;;;18.39;66.55;99866.09;5012237;28;20058;-84
2022/07/03 00:15:05;;;;;;;10.73;6.18;;;;;;;18.50;65.95;99888.69;5012523;28;20054;-82
2022/07/03 00:17:33;;;;;;;10.30;6.13;;;;;;;18.33;65.13;99860.13;5012301;28;20410;-81
2022/07/03 00:20:00;;;;;;;12.30;5.80;;;;;;;18.47;65.25;99896.72;5011145;28;20127;-82
2022/07/03 00:22:30;;;;;;;10.65;7.05;;;;;;;18.44;65.38;99883.59;5012143;28;20111;-81
2022/07/03 00:25:07;;;;;;;10.52;6.47;;;;;;;18.38;65.04;99879.34;5013376;28;20054;-81
2022/07/03 00:27:35;;;;;;;11.23;6.18;;;;;;;18.14;65.32;99835.97;5013481;28;20062;-83
2022/07/03 00:30:05;;;;;;;12.25;6.68;;;;;;;18.32;65.67;99874.22;5012431;28;20053;-81
2022/07/03 00:32:32;;;;;;;9.40;6.70;;;;;;;18.36;65.80;99889.09;5010455;28;20050;-82
2022/07/03 00:35:01;;;;;;;11.95;7.10;;;;;;;18.07;65.15;99835.28;5011668;28;20578;-82
2022/07/03 00:37:29;;;;;;;10.63;6.75;;;;;;;18.18;65.68;99849.03;5042228;28;20122;-81
2022/07/03 00:39:57;;;;;;;12.23;7.13;;;;;;;18.17;66.18;99849.09;5012023;28;20061;-82
2022/07/03 00:42:27;;;;;;;10.82;6.68;;;;;;;18.33;67.08;99886.56;5011958;28;20122;-82
2022/07/03 00:44:56;;;;;;;10.63;6.97;;;;;;;18.29;66.87;99891.06;5012574;28;20069;-82
2022/07/03 00:47:25;;;;;;;11.32;6.88;;;;;;;18.18;67.26;99859.63;5011674;28;20062;-83
2022/07/03 00:49:55;;;;;;;15.05;7.50;;;;;;;18.18;67.73;99856.97;5012134;28;20053;-83
2022/07/03 00:52:22;;;;;;;13.57;6.88;;;;;;;18.28;68.13;99884.00;5012163;28;20112;-85
2022/07/03 00:54:55;;;;;;;10.93;6.75;;;;;;;18.11;68.25;99846.59;5011268;28;20438;-82
2022/07/03 00:57:24;;;;;;;12.63;7.05;;;;;;;18.24;68.29;99877.09;5011952;28;20081;-83
2022/07/03 00:59:52;;;;;;;11.75;6.82;;;;;;;18.28;67.62;99884.00;5012073;28;20148;-83
2022/07/03 01:02:45;;;;;;;13.23;6.88;;;;;;;18.28;67.31;99884.00;5011002;28;20077;-83
2022/07/03 01:05:15;;;;;;;12.38;7.07;;;;;;;18.28;67.22;99875.22;5004744;28;20139;-83
2022/07/03 01:08:01;;;;;;;12.05;6.55;;;;;;;18.39;66.62;99878.41;5011372;28;20061;-82
2022/07/03 01:10:47;;;;;;;12.20;7.45;;;;;;;18.44;67.03;99876.53;5011535;28;20148;-83
2022/07/03 01:13:23;;;;;;;10.82;6.80;;;;;;;18.52;67.74;99876.28;5011008;28;20533;-82
2022/07/03 01:16:26;;;;;;;14.95;7.50;;;;;;;18.44;67.96;99863.31;5011650;28;20132;-82
2022/07/03 01:19:02;;;;;;;13.10;8.00;;;;;;;18.48;69.13;99880.81;5007757;28;20111;-81
2022/07/03 01:22:09;;;;;;;12.27;7.47;;;;;;;18.51;69.01;99872.78;5011649;28;20103;-83
2022/07/03 01:24:45;;;;;;;14.07;7.50;;;;;;;18.59;68.89;99878.72;5010467;28;20430;-82
2022/07/03 01:27:46;;;;;;;12.45;7.18;;;;;;;18.64;68.47;99873.28;5011952;28;20057;-83
2022/07/03 01:30:13;;;;;;;14.88;6.82;;;;;;;18.72;67.26;99878.38;5010200;28;20054;-82
2022/07/03 01:32:45;;;;;;;13.98;7.10;;;;;;;18.62;66.01;99846.03;5013020;28;20049;-81
2022/07/03 01:35:20;;;;;;;13.15;7.43;;;;;;;18.87;64.79;99875.28;5011351;28;20055;-82
2022/07/03 01:37:50;;;;;;;13.73;6.60;;;;;;;18.92;64.20;99881.28;5042374;28;20507;-82
2022/07/03 01:40:17;;;;;;;;;;;;;;;18.81;64.25;99876.34;5010983;28;20052;-82
2022/07/03 01:42:45;;;;;;;13.18;6.20;;;;;;;18.89;63.80;99848.78;5010882;28;19925;-83
2022/07/03 01:45:15;;;;;;;13.30;6.55;;;;;;;19.08;62.99;99864.94;5017594;28;20054;-82
2022/07/03 01:47:46;;;;;;;15.65;6.40;;;;;;;19.22;62.69;99882.13;5019057;28;20054;-83
2022/07/03 01:50:15;;;;;;;12.15;6.65;;;;;;;19.31;62.30;99875.66;5013692;28;20530;-83
2022/07/03 01:52:44;;;;;;;11.82;6.65;;;;;;;19.45;61.65;99875.22;5013735;28;20469;-82
2022/07/03 01:55:18;;;;;;;12.65;6.47;;;;;;;19.43;61.37;99853.22;5015402;28;20052;-83
2022/07/03 01:57:50;;;;;;;13.10;6.78;;;;;;;19.52;61.96;99858.22;5015558;28;20062;-84
2022/07/03 02:00:21;;;;;;;10.98;6.47;;;;;;;19.67;61.01;99848.03;5014045;28;20115;-82
2022/07/03 02:03:09;;;;;;;15.48;7.10;;;;;;;20.08;60.68;99869.59;5013668;28;20095;-84
2022/07/03 02:05:46;;;;;;;11.75;6.57;;;;;;;21.40;57.84;99868.09;5013996;28;20479;-82
2022/07/03 02:08:27;;;;;;;12.18;6.65;;;;;;;23.54;51.87;99868.25;5014021;28;20085;-82
2022/07/03 02:11:09;;;;;;;11.77;6.82;;;;;;;25.62;45.83;99863.22;5014255;28;20053;-83
2022/07/03 02:13:52;;;;;;;15.48;6.97;;;;;;;27.03;43.56;99851.00;5013810;28;20050;-82
2022/07/03 02:17:20;;;;;;;13.05;7.25;;;;;;;28.64;41.05;99847.25;5012781;28;20054;-84
2022/07/03 02:19:57;;;;;;;17.65;7.97;;;;;;;29.83;38.39;99839.34;4975186;28;20511;-83
2022/07/03 02:22:33;;;;;;;10.50;6.80;;;;;;;30.95;36.15;99849.34;4991531;28;20057;-82
2022/07/03 02:25:08;;;;;;;12.60;6.97;;;;;;;31.69;34.51;99837.84;5006812;28;20050;-81
2022/07/03 02:28:03;;;;;;;11.52;7.05;;;;;;;32.36;32.91;99848.22;5014064;28;20057;-84
2022/07/03 02:30:35;;;;;;;10.23;7.20;;;;;;;32.70;31.69;99844.38;5013140;28;20053;-84
2022/07/03 02:33:04;;;;;;;11.18;7.03;;;;;;;32.73;31.30;99839.56;5014286;28;20058;-81
2022/07/03 02:35:33;;;;;;;11.98;7.65;;;;;;;33.10;31.05;99840.81;5013192;28;20068;-83
2022/07/03 02:38:17;;;;;;;10.18;7.03;;;;;;;33.49;30.58;99843.53;5011863;28;20085;-84
2022/07/03 02:40:56;;;;;;;14.98;7.47;;;;;;;34.16;29.65;99833.66;5013347;28;20510;-84
2022/07/03 02:43:28;;;;;;;;;;;;;;;34.52;30.88;99841.94;5013530;28;20599;-84
2022/07/03 02:49:16;;;;;;;12.32;7.93;;;;;;;34.19;29.54;99834.22;5013296;28;20561;-83
2022/07/03 02:51:50;;;;;;;12.10;7.65;;;;;;;34.62;28.59;99846.31;5012783;28;20052;-83
2022/07/03 02:54:18;;;;;;;12.38;7.90;;;;;;;34.93;28.15;99842.47;5013493;28;20054;-82
2022/07/03 02:57:05;;;;;;;12.20;7.00;;;;;;;35.05;27.86;99844.81;5013973;28;20084;-83
2022/07/03 03:00:01;;;;;;;11.82;7.25;;;;;;;35.42;27.10;99829.41;5013586;28;20061;-82
2022/07/03 03:02:33;;;;;;;12.87;7.47;;;;;;;36.16;26.13;99849.94;5012410;28;20103;-82
2022/07/03 03:05:21;;;;;;;9.68;7.50;;;;;;;36.72;25.42;99828.63;5012302;28;20494;-83
2022/07/03 03:08:13;;;;;;;11.02;7.07;;;;;;;37.39;24.90;99846.84;5012444;28;20580;-84
2022/07/03 03:10:41;;;;;;;11.10;6.93;;;;;;;37.93;23.97;99833.56;5012775;28;20061;-83
2022/07/03 03:13:11;;;;;;;12.32;7.53;;;;;;;38.66;23.05;99845.34;5011988;28;20469;-82
2022/07/03 03:15:43;;;;;;;15.10;7.60;;;;;;;39.00;23.02;99823.19;5012829;28;20085;-82
2022/07/03 03:18:12;;;;;;;13.10;7.10;;;;;;;39.53;22.71;99839.72;5011687;28;20053;-86
2022/07/03 03:20:46;;;;;;;11.98;6.85;;;;;;;39.70;22.21;99843.19;5012403;28;20107;-84
2022/07/03 03:23:48;;;;;;;10.60;7.05;;;;;;;40.33;22.23;99841.91;5012863;28;20073;-84
2022/07/03 03:26:24;;;;;;;10.68;7.40;;;;;;;40.85;20.92;99834.63;5014872;28;20057;-84
2022/07/03 03:28:52;;;;;;;13.30;7.25;;;;;;;41.35;19.95;99829.28;5014845;28;20058;-84
2022/07/03 03:31:20;;;;;;;10.70;7.00;;;;;;;41.34;19.70;99803.75;5020124;28;20057;-83
2022/07/03 03:33:49;;;;;;;11.45;6.97;;;;;;;41.49;19.65;99822.00;5033107;28;20053;-85
2022/07/03 03:36:19;;;;;;;10.90;7.35;;;;;;;41.14;19.45;99821.84;5041673;28;20090;-83
2022/07/03 03:38:49;;;;;;;9.88;7.10;;;;;;;40.85;19.83;99833.75;5051875;27;20042;-85
2022/07/03 03:41:16;;;;;;;13.32;7.90;;;;;;;41.01;19.68;99829.94;5056922;27;20105;-82
2022/07/03 03:43:44;;;;;;;12.45;7.65;;;;;;;41.27;19.82;99832.97;5056631;27;20097;-81
2022/07/03 03:46:17;;;;;;;9.30;7.20;;;;;;;41.63;19.61;99840.31;5046122;28;20053;-80
2022/07/03 03:48:44;;;;;;;11.88;8.18;;;;;;;42.01;18.92;99834.50;5043569;28;20061;-82
2022/07/03 03:51:12;;;;;;;17.05;10.48;;;;;;;42.08;19.23;99810.72;5042318;28;20073;-82
2022/07/03 03:53:40;;;;;;;13.65;9.57;;;;;;;42.82;18.60;99839.38;5033117;28;20076;-83
2022/07/03 03:56:09;;;;;;;12.32;9.50;;;;;;;42.71;18.07;99821.59;5034157;28;20057;-85
2022/07/03 03:58:38;;;;;;;12.38;8.75;;;;;;;42.37;18.58;99813.41;5034042;28;20053;-84
2022/07/03 04:01:07;;;;;;;11.65;8.63;;;;;;;42.42;18.67;99827.38;5032728;28;20506;-86
2022/07/03 04:03:35;;;;;;;11.50;8.93;;;;;;;42.66;17.98;99823.25;5032270;28;20057;-85
2022/07/03 04:06:03;;;;;;;10.63;7.68;;;;;;;42.29;18.75;99822.63;5029897;28;20067;-82
2022/07/03 04:08:31;;;;;;;9.63;7.25;;;;;;;42.41;18.85;99818.31;5031153;28;20467;-83
2022/07/03 04:10:58;;;;;;;;;;;;;;;42.74;19.33;99809.34;5028658;28;20088;-86
2022/07/03 04:13:27;;;;;;;10.80;7.03;;;;;;;42.82;18.18;99808.34;5022557;28;19925;-83
2022/07/03 04:15:55;;;;;;;8.65;7.20;;;;;;;43.32;17.90;99808.91;5013615;28;20050;-83
2022/07/03 04:18:23;;;;;;;11.93;9.00;;;;;;;42.72;18.41;99809.59;5012392;28;20132;-83
2022/07/03 04:20:50;;;;;;;11.55;7.80;;;;;;;41.05;19.69;99812.91;5011867;28;20057;-83
2022/07/03 04:23:18;;;;;;;8.15;7.35;;;;;;;38.26;23.19;99808.97;5011917;28;20054;-85
2022/07/03 04:25:45;;;;;;;7.63;6.65;;;;;;;35.48;26.93;99805.22;5045443;28;20075;-84
2022/07/03 04:28:12;;;;;;;8.48;7.07;;;;;;;33.65;29.97;99812.22;5014085;28;20060;-84
2022/07/03 04:30:46;;;;;;;9.02;6.68;;;;;;;32.41;32.06;99804.56;5011970;28;20570;-86
2022/07/03 04:33:13;;;;;;;11.10;8.43;;;;;;;31.41;33.81;99810.47;5011431;28;20469;-84
2022/07/03 04:35:40;;;;;;;8.23;6.65;;;;;;;30.39;35.63;99804.41;5011630;28;20081;-82
2022/07/03 04:38:07;;;;;;;8.60;6.70;;;;;;;30.02;36.04;99813.53;5012039;28;20103;-83
2022/07/03 04:40:34;;;;;;;9.93;6.80;;;;;;;29.31;37.46;99809.19;5011823;28;20050;-82
2022/07/03 04:43:01;;;;;;;7.93;6.35;;;;;;;28.84;38.80;99816.22;5011734;28;20098;-82
2022/07/03 04:45:28;;;;;;;9.20;6.60;;;;;;;28.63;39.52;99813.28;5027933;27;20050;-80
2022/07/03 04:47:56;;;;;;;9.02;6.53;;;;;;;28.26;40.29;99784.50;5039491;27;20106;-82
2022/07/03 04:50:23;;;;;;;8.75;7.15;;;;;;;28.27;40.50;99812.25;5031670;28;20076;-81
2022/07/03 04:52:50;;;;;;;8.07;6.72;;;;;;;28.17;40.97;99815.56;5030690;28;20057;-83
2022/07/03 04:55:17;;;;;;;8.57;6.97;;;;;;;27.74;42.13;99818.53;5032125;28;20053;-83
2022/07/03 04:57:44;;;;;;;9.20;7.00;;;;;;;27.46;43.08;99819.56;5032815;28;20498;-82
2022/07/03 05:00:12;;;;;;;10.18;7.63;;;;;;;27.30;43.46;99814.38;5030945;28;20098;-81
2022/07/03 05:02:39;;;;;;;8.70;7.10;;;;;;;27.13;43.97;99825.31;5031591;28;20053;-82
2022/07/03 05:05:07;;;;;;;10.52;7.57;;;;;;;26.93;44.74;99823.94;5031727;28;20049;-83
2022/07/03 05:07:34;;;;;;;10.20;7.63;;;;;;;26.80;45.22;99823.88;5030077;28;20060;-82
2022/07/03 05:10:01;;;;;;;7.95;6.97;;;;;;;26.84;45.13;99817.34;5011260;28;20057;-85
2022/07/03 05:12:29;;;;;;;9.13;7.60;;;;;;;26.68;45.81;99811.28;5012084;28;20080;-82
2022/07/03 05:14:56;;;;;;;8.23;7.35;;;;;;;26.74;46.25;99822.47;5016305;28;20098;-81
2022/07/03 05:17:23;;;;;;;9.13;7.82;;;;;;;26.91;45.46;99820.50;5031534;28;20053;-83
2022/07/03 05:20:23;;;;;;;11.82;7.55;;;;;;;26.93;45.78;99818.56;5024083;28;20456;-82
2022/07/03 05:22:40;;;;;;;11.15;7.40;;;;;;;27.08;45.63;99812.22;5011087;28;20060;-84
2022/07/03 05:25:07;;;;;;;9.38;7.95;;;;;;;27.12;45.03;99816.41;5045398;28;20080;-87
2022/07/03 05:27:37;;;;;;;15.82;7.82;;;;;;;26.78;46.01;99825.81;5033270;28;20149;-87
2022/07/03 05:30:06;;;;;;;10.80;7.72;;;;;;;26.51;46.31;99786.41;5032914;28;20110;-83
2022/07/03 05:32:33;;;;;;;10.52;7.75;;;;;;;26.46;46.69;99804.59;5029916;28;20490;-84
2022/07/03 05:35:00;;;;;;;10.52;8.02;;;;;;;26.54;46.95;99829.06;5032064;28;20058;-84
2022/07/03 05:37:29;;;;;;;9.57;8.32;;;;;;;26.53;46.70;99795.19;5031465;28;20137;-80
2022/07/03 05:39:57;;;;;;;11.80;8.20;;;;;;;26.82;47.00;99813.06;5016315;28;20058;-84
2022/07/03 05:42:25;;;;;;;9.30;7.70;;;;;;;26.99;45.82;99812.81;5010084;28;20060;-83
2022/07/03 05:44:51;;;;;;;10.18;8.18;;;;;;;26.91;46.43;99813.34;5009849;28;20474;-84
2022/07/03 05:47:19;;;;;;;13.88;8.73;;;;;;;27.00;46.57;99816.38;5009636;28;20118;-83
2022/07/03 05:49:46;;;;;;;10.15;8.38;;;;;;;26.99;46.52;99818.19;5010887;28;20053;-82
2022/07/03 05:52:14;;;;;;;10.27;7.70;;;;;;;26.94;46.41;99818.47;5011166;28;20046;-83
2022/07/03 05:54:41;;;;;;;11.88;8.10;;;;;;;27.01;46.29;99815.41;5010982;28;20148;-83
2022/07/03 05:57:08;;;;;;;10.88;7.88;;;;;;;26.93;46.66;99803.38;5012968;28;20053;-83
2022/07/03 05:59:35;;;;;;;9.88;7.85;;;;;;;26.99;47.04;99809.28;5012919;28;20093;-85
2022/07/03 06:02:02;;;;;;;11.00;7.93;;;;;;;27.01;46.88;99804.69;5042386;28;20050;-82
2022/07/03 06:04:29;;;;;;;16.13;9.15;;;;;;;26.90;46.42;99792.84;5011219;28;20107;-83
2022/07/03 06:06:57;;;;;;;13.27;8.30;;;;;;;26.75;47.11;99802.72;5025885;28;20061;-83
2022/07/03 06:09:24;;;;;;;11.88;8.50;;;;;;;26.92;46.46;99812.38;5010486;28;20065;-83
2022/07/03 06:11:51;;;;;;;10.52;7.25;;;;;;;26.98;46.43;99811.13;5011376;28;20057;-82
2022/07/03 06:14:18;;;;;;;9.15;7.25;;;;;;;26.90;46.64;99813.44;5013163;28;20153;-82
2022/07/03 06:16:45;;;;;;;11.13;7.47;;;;;;;26.91;46.21;99809.78;5012027;28;20137;-83
2022/07/03 06:19:12;;;;;;;9.40;7.40;;;;;;;26.90;46.64;99814.28;5010562;28;20083;-85
2022/07/03 06:21:39;;;;;;;11.07;7.78;;;;;;;27.00;46.37;99801.16;5010418;28;20054;-82
2022/07/03 06:24:06;;;;;;;10.30;7.50;;;;;;;27.09;46.26;99815.75;5009868;28;20046;-83
2022/07/03 06:26:33;;;;;;;10.55;7.88;;;;;;;27.15;46.56;99818.03;5011210;28;20419;-84
2022/07/03 06:29:00;;;;;;;10.15;7.70;;;;;;;27.05;46.35;99817.78;5012684;28;20078;-84
2022/07/03 06:31:27;;;;;;;7.93;7.07;;;;;;;27.13;46.15;99795.84;5014489;28;20068;-83
2022/07/03 06:33:54;;;;;;;11.63;8.00;;;;;;;27.31;46.45;99812.53;5013971;28;20049;-82
2022/07/03 06:36:21;;;;;;;8.88;7.32;;;;;;;27.54;46.33;99813.69;5014024;28;20070;-84
2022/07/03 06:38:48;;;;;;;25.25;17.35;;;;;;;27.48;46.63;99812.25;5013826;28;20140;-83
2022/07/03 06:41:16;;;;;;;11.93;8.80;;;;;;;27.51;46.18;99800.47;5014172;28;20065;-83
2022/07/03 06:43:42;;;;;;;9.52;8.05;;;;;;;27.66;45.12;99820.03;5014659;28;20099;-82
2022/07/03 06:46:10;;;;;;;10.07;7.57;;;;;;;27.42;45.24;99793.91;5013840;28;20053;-84
2022/07/03 06:48:37;;;;;;;10.60;7.80;;;;;;;27.45;45.93;99806.22;5015495;28;20069;-84
2022/07/03 06:51:04;;;;;;;11.57;7.75;;;;;;;27.52;45.85;99810.25;5014796;28;20507;-82
2022/07/03 06:53:31;;;;;;;9.85;7.68;;;;;;;27.68;45.99;99823.47;5015293;28;20105;-83
2022/07/03 06:55:58;;;;;;;12.57;7.35;;;;;;;27.62;45.06;99814.03;5014109;28;20057;-82
2022/07/03 06:58:25;;;;;;;9.63;7.38;;;;;;;27.64;44.73;99813.91;5014981;28;20058;-83
2022/07/03 07:00:52;;;;;;;11.95;7.95;;;;;;;27.68;44.06;99818.94;5014505;28;20062;-83
2022/07/03 07:03:21;;;;;;;;;;;;;;;27.54;44.38;99819.91;5014541;28;20061;-84
2022/07/03 07:05:48;;;;;;;8.77;7.00;;;;;;;27.69;43.82;99809.94;5014330;28;20024;-83
2022/07/03 07:08:15;;;;;;;10.10;6.65;;;;;;;27.69;44.02;99814.47;5013770;28;20058;-83
2022/07/03 07:10:43;;;;;;;12.85;8.48;;;;;;;27.66;43.82;99815.53;5018365;28;20060;-83
2022/07/03 07:13:10;;;;;;;8.55;6.35;;;;;;;27.63;42.62;99807.69;5013138;28;20061;-84
2022/07/03 07:15:37;;;;;;;8.00;6.43;;;;;;;27.67;42.89;99819.06;5014310;28;20071;-84
2022/07/03 07:18:04;;;;;;;9.90;6.82;;;;;;;27.63;43.31;99804.16;5012753;28;20050;-83
2022/07/03 07:20:31;;;;;;;7.45;6.75;;;;;;;27.72;44.00;99823.13;5012315;28;20435;-82
2022/07/03 07:22:58;;;;;;;8.75;6.93;;;;;;;27.84;43.90;99809.88;5011310;28;20054;-83
2022/07/03 07:25:26;;;;;;;10.57;7.10;;;;;;;28.02;43.80;99821.16;5012959;28;20058;-83
2022/07/03 07:27:54;;;;;;;10.27;6.65;;;;;;;27.95;43.31;99789.38;5012322;28;20050;-82
2022/07/03 07:30:22;;;;;;;8.32;6.55;;;;;;;28.07;42.98;99809.16;5014631;28;20049;-83
2022/07/03 07:32:48;;;;;;;8.75;7.10;;;;;;;27.95;43.32;99789.38;5013446;28;20072;-84
2022/07/03 07:35:22;;;;;;;12.15;7.97;;;;;;;28.26;42.71;99814.06;5016213;28;20145;-81
2022/07/03 07:37:50;;;;;;;;;;;;;;;28.11;42.72;99821.38;5014310;28;20066;-82
2022/07/03 07:40:16;;;;;;;8.88;6.13;;;;;;;28.13;42.47;99815.91;5012151;28;19975;-82
2022/07/03 07:42:43;;;;;;;8.52;6.60;;;;;;;28.06;42.94;99830.72;5011841;28;20060;-83
2022/07/03 07:45:11;;;;;;;8.02;7.20;;;;;;;28.19;42.17;99820.84;5012306;28;20056;-83
2022/07/03 07:47:41;;;;;;;7.43;6.65;;;;;;;28.20;42.23;99809.16;5011507;28;20525;-83
2022/07/03 07:50:08;;;;;;;8.70;7.10;;;;;;;28.21;42.25;99801.94;5013248;28;20098;-83
2022/07/03 07:52:36;;;;;;;14.02;8.13;;;;;;;28.25;42.18;99808.81;5012866;28;20149;-82
2022/07/03 07:55:05;;;;;;;8.27;7.28;;;;;;;28.36;41.65;99806.22;5012334;28;20049;-82
2022/07/03 07:57:39;;;;;;;8.48;7.68;;;;;;;28.40;41.38;99821.16;5011674;28;20055;-84
2022/07/03 08:00:15;;;;;;;8.98;7.18;;;;;;;28.34;41.52;99802.78;5014768;28;20103;-84
2022/07/03 08:05:36;;;;;;;9.27;6.88;;;;;;;28.39;41.37;99805.97;5012146;28;20077;-85
2022/07/03 08:08:08;;;;;;;8.10;7.07;;;;;;;28.36;40.81;99808.91;5027218;28;20088;-83
2022/07/03 08:10:38;;;;;;;8.50;7.60;;;;;;;28.28;40.18;99787.94;5011901;28;20073;-83
2022/07/03 08:13:06;;;;;;;8.85;7.50;;;;;;;28.47;39.54;99819.72;5011510;28;20046;-83
2022/07/03 08:15:34;;;;;;;10.45;6.85;;;;;;;28.66;39.00;99802.31;5011410;28;20060;-81
2022/07/03 08:18:01;;;;;;;9.23;7.45;;;;;;;28.73;39.22;99809.81;5012350;28;20057;-83
2022/07/03 08:20:29;;;;;;;7.65;6.85;;;;;;;28.74;39.05;99808.00;5043790;28;20103;-84
2022/07/03 08:22:57;;;;;;;7.47;6.65;;;;;;;28.72;37.88;99808.09;5010305;28;20046;-83
2022/07/03 08:25:25;;;;;;;8.07;6.78;;;;;;;28.82;37.84;99824.41;5011169;28;20106;-83
2022/07/03 08:27:52;;;;;;;7.70;6.90;;;;;;;28.91;36.74;99818.38;5011035;28;20053;-83
2022/07/03 08:30:19;;;;;;;8.80;6.60;;;;;;;28.74;36.53;99816.06;5014109;28;20120;-84
2022/07/03 08:32:48;;;;;;;6.55;5.95;;;;;;;28.70;36.95;99801.13;5019728;28;20058;-84
2022/07/03 08:35:16;;;;;;;9.48;6.10;;;;;;;28.47;37.58;99818.88;5013292;28;20091;-84
2022/07/03 08:37:46;;;;;;;6.68;6.07;;;;;;;28.59;36.95;99801.91;5012664;28;20065;-83
2022/07/03 08:40:13;;;;;;;;;;;;;;;28.51;36.44;99823.94;5012839;28;20141;-82
2022/07/03 08:42:52;;;;;;;6.82;6.15;;;;;;;28.78;35.57;99807.66;5011591;28;20338;-83
2022/07/03 08:45:24;;;;;;;8.93;6.35;;;;;;;28.91;35.37;99787.91;5044037;28;20068;-83
2022/07/03 08:47:54;;;;;;;8.00;6.32;;;;;;;29.24;35.57;99814.16;5012324;28;20053;-84
2022/07/03 08:50:21;;;;;;;8.48;6.70;;;;;;;29.10;35.14;99801.72;5012284;28;20133;-84
2022/07/03 08:52:49;;;;;;;6.72;6.10;;;;;;;29.07;35.39;99804.63;5012105;28;20140;-82
2022/07/03 08:55:17;;;;;;;6.75;6.05;;;;;;;28.98;34.89;99783.81;5012360;28;20106;-83
2022/07/03 08:57:47;;;;;;;6.20;5.60;;;;;;;29.05;35.11;99809.25;5011445;28;20050;-83
2022/07/03 09:00:16;;;;;;;7.05;6.15;;;;;;;29.03;35.41;99796.91;5014514;28;20466;-82
2022/07/03 09:02:46;;;;;;;6.30;5.70;;;;;;;28.92;36.27;99811.16;5030910;28;20050;-81
2022/07/03 09:05:15;;;;;;;7.32;6.22;;;;;;;28.90;35.76;99811.25;5035151;28;20066;-83
2022/07/03 09:07:44;;;;;;;7.07;5.95;;;;;;;28.88;34.90;99798.91;5035189;28;20104;-83
2022/07/03 09:10:13;;;;;;;12.90;8.45;;;;;;;28.78;36.14;99782.59;5015827;28;20131;-83
2022/07/03 09:12:45;;;;;;;8.00;6.43;;;;;;;29.09;36.39;99807.22;5018644;28;20207;-82
2022/07/03 09:15:13;;;;;;;7.70;6.68;;;;;;;29.02;35.29;99788.00;5018213;28;20083;-83
2022/07/03 09:17:55;;;;;;;9.05;6.57;;;;;;;29.18;36.09;99811.94;5013051;28;20461;-83
2022/07/03 09:20:28;;;;;;;7.68;5.80;;;;;;;29.26;34.19;99806.84;5012947;28;20510;-83
2022/07/03 09:23:08;;;;;;;8.25;5.90;;;;;;;29.43;33.31;99810.06;5013955;28;20045;-83
2022/07/03 09:25:50;;;;;;;6.65;5.65;;;;;;;29.53;32.76;99795.78;5015825;28;20050;-84
2022/07/03 09:28:19;;;;;;;5.80;5.30;;;;;;;29.64;32.76;99796.81;5013346;28;20103;-83
2022/07/03 09:31:02;;;;;;;6.07;5.57;;;;;;;29.45;32.78;99790.16;5018386;28;20057;-82
2022/07/03 09:33:29;;;;;;;5.90;5.35;;;;;;;29.50;32.21;99806.81;5015074;28;20190;-83
2022/07/03 09:35:56;;;;;;;8.90;5.60;;;;;;;29.36;33.16;99805.19;5013996;28;20053;-83
2022/07/03 09:38:23;;;;;;;6.97;5.57;;;;;;;29.39;31.63;99799.56;5014014;28;20061;-84
2022/07/03 09:40:53;;;;;;;6.78;5.15;;;;;;;29.46;31.47;99791.00;5012813;28;20057;-83
2022/07/03 09:43:24;;;;;;;7.22;5.53;;;;;;;29.50;31.72;99777.19;5012218;28;20050;-82
2022/07/03 09:46:18;;;;;;;6.25;5.70;;;;;;;29.77;31.77;99808.38;5012687;28;20495;-82
2022/07/03 09:48:45;;;;;;;6.18;5.57;;;;;;;29.59;31.30;99806.09;5011308;28;20073;-82
2022/07/03 09:51:23;;;;;;;6.82;5.60;;;;;;;29.17;30.87;99797.63;5013437;28;20073;-82
2022/07/03 09:53:54;;;;;;;12.18;5.47;;;;;;;28.97;31.32;99809.84;5012419;28;20132;-83
2022/07/03 09:56:27;;;;;;;7.22;5.50;;;;;;;28.97;31.78;99798.22;5012530;28;20054;-83
2022/07/03 09:59:22;;;;;;;5.85;5.25;;;;;;;29.13;32.40;99784.53;5012805;28;20069;-83
2022/07/03 10:01:49;;;;;;;8.60;6.22;;;;;;;29.33;32.54;99772.25;5014846;28;20115;-82
2022/07/03 10:04:21;;;;;;;9.68;6.10;;;;;;;29.71;31.56;99795.41;5023537;28;20102;-83
2022/07/03 10:07:01;;;;;;;5.75;5.25;;;;;;;29.81;30.99;99796.38;5034658;28;20144;-80
2022/07/03 10:09:30;;;;;;;5.55;5.05;;;;;;;29.72;31.40;99778.28;5034002;28;20201;-83
2022/07/03 10:11:58;;;;;;;6.35;5.53;;;;;;;29.86;30.72;99769.97;5033361;28;20095;-82
2022/07/03 10:14:28;;;;;;;7.40;5.20;;;;;;;30.04;30.35;99791.91;5033888;28;20053;-81
2022/07/03 10:16:57;;;;;;;6.30;5.30;;;;;;;30.09;30.10;99789.69;5034838;28;20498;-82
2022/07/03 10:19:29;;;;;;;5.82;5.07;;;;;;;29.92;30.78;99795.53;5025291;28;20570;-82
2022/07/03 10:22:02;;;;;;;6.57;5.30;;;;;;;29.93;31.13;99783.81;5054949;28;20084;-82
2022/07/03 10:24:30;;;;;;;7.47;5.72;;;;;;;29.87;31.74;99795.06;5034280;28;20060;-82
2022/07/03 10:26:58;;;;;;;6.68;5.80;;;;;;;29.56;32.28;99787.50;5033454;28;20049;-77
2022/07/03 10:29:27;;;;;;;7.30;6.20;;;;;;;29.53;32.94;99779.66;5034452;28;20101;-82
2022/07/03 10:31:57;;;;;;;7.90;6.38;;;;;;;29.81;31.97;99788.31;5035512;28;20060;-82
2022/07/03 10:34:26;;;;;;;6.18;5.57;;;;;;;29.86;31.54;99763.72;5035308;28;20510;-80
2022/07/03 10:36:59;;;;;;;7.33;6.07;;;;;;;30.11;31.24;99787.72;5033295;28;20156;-80
2022/07/03 10:39:54;;;;;;;6.10;5.50;;;;;;;30.18;30.21;99780.91;5033754;28;20840;-82
2022/07/03 10:45:19;;;;;;;5.93;5.32;;;;;;;30.32;30.26;99768.19;5033413;28;20662;-83
2022/07/03 10:47:48;;;;;;;9.32;5.72;;;;;;;30.33;30.14;99776.16;5033827;28;20148;-81
2022/07/03 10:50:18;;;;;;;8.15;5.10;;;;;;;30.25;29.73;99783.09;5032102;28;20079;-82
2022/07/03 10:52:46;;;;;;;6.30;5.70;;;;;;;29.93;30.53;99757.75;5031770;28;20053;-82
2022/07/03 10:55:15;;;;;;;5.90;5.40;;;;;;;29.92;30.91;99772.19;5030901;27;20057;-81
2022/07/03 10:58:03;;;;;;;5.80;5.28;;;;;;;29.69;31.25;99773.09;5091242;27;20056;-81
2022/07/03 11:00:30;;;;;;;6.25;5.53;;;;;;;29.89;31.24;99747.34;5089249;27;20046;-81
2022/07/03 11:02:57;;;;;;;8.30;7.07;;;;;;;30.36;30.41;99757.03;5069819;27;20162;-81
2022/07/03 11:09:15;;;;;;;7.03;6.30;;;;;;;30.34;30.15;99729.34;5079208;27;20480;-81
2022/07/03 11:11:56;;;;;;;10.85;7.25;;;;;;;30.71;30.30;99763.22;5084393;27;20042;-82
2022/07/03 11:14:28;;;;;;;8.00;6.18;;;;;;;30.66;30.37;99760.06;5081754;27;20102;-82
2022/07/03 11:17:21;;;;;;;8.90;6.80;;;;;;;30.33;30.72;99748.31;5077858;27;20060;-81
2022/07/03 11:23:10;;;;;;;7.80;5.70;;;;;;;30.18;30.21;99747.72;5092552;27;20050;-82
2022/07/03 11:25:43;;;;;;;6.35;5.75;;;;;;;30.22;30.01;99741.09;5086460;27;20043;-82
2022/07/03 11:28:32;;;;;;;6.38;5.75;;;;;;;29.92;30.67;99745.28;5089352;27;20114;-85
2022/07/03 11:31:14;;;;;;;7.38;6.05;;;;;;;29.68;31.26;99749.84;5060293;27;20098;-82
2022/07/03 11:33:44;;;;;;;6.45;5.80;;;;;;;29.43;31.61;99754.44;5081514;27;20045;-83
2022/07/03 11:36:27;;;;;;;7.45;6.05;;;;;;;29.27;31.96;99753.91;5065467;27;20059;-81
2022/07/03 11:39:00;;;;;;;6.25;5.68;;;;;;;29.23;32.64;99747.88;5078421;27;20042;-81
2022/07/03 11:41:30;;;;;;;7.78;5.80;;;;;;;29.45;32.15;99768.63;5083368;27;20047;-83
2022/07/03 11:44:01;;;;;;;8.10;6.18;;;;;;;29.56;32.77;99738.22;5079200;27;20064;-84
2022/07/03 11:46:30;;;;;;;6.90;5.90;;;;;;;29.86;32.71;99753.81;5078179;27;20050;-81
2022/07/03 11:49:18;;;;;;;7.35;6.65;;;;;;;29.86;32.12;99748.44;5089145;27;20051;-81
2022/07/03 11:51:59;;;;;;;6.70;6.00;;;;;;;29.95;31.89;99745.00;5076226;27;20058;-81
2022/07/03 11:54:32;;;;;;;7.50;6.15;;;;;;;29.96;31.59;99741.31;5081775;27;20049;-79
2022/07/03 11:57:01;;;;;;;6.70;5.70;;;;;;;30.02;32.11;99730.06;5077321;27;20066;-82
2022/07/03 11:59:29;;;;;;;6.88;6.15;;;;;;;30.21;31.23;99740.22;5081144;27;20066;-81
2022/07/03 12:02:03;;;;;;;6.85;6.13;;;;;;;30.10;30.98;99748.31;5086858;27;20456;-81
2022/07/03 12:04:31;;;;;;;7.25;6.15;;;;;;;29.96;30.59;99746.72;5088184;27;20042;-82
2022/07/03 12:07:01;;;;;;;;;;;;;;;29.70;31.42;99745.22;5074299;27;20043;-81